createdAt,value
2023-04-21T00:02:25.933Z,100.00
2023-04-21T00:04:54.297Z,100.00
2023-04-21T00:07:22.833Z,100.00
2023-04-21T00:09:51.054Z,100.00
2023-04-21T00:12:19.925Z,100.00
2023-04-21T00:14:47.925Z,100.00
2023-04-21T00:17:17.522Z,100.00
2023-04-21T00:19:46.015Z,100.00
2023-04-21T00:22:15.245Z,100.00
2023-04-21T00:24:43.453Z,100.00
2023-04-21T00:27:12.044Z,100.00
2023-04-21T00:29:40.547Z,100.00
2023-04-21T00:32:11.364Z,100.00
2023-04-21T00:34:40.882Z,100.00
2023-04-21T00:37:08.972Z,100.00
2023-04-21T00:39:37.419Z,100.00
2023-04-21T00:42:08.412Z,100.00
2023-04-21T00:44:36.674Z,100.00
2023-04-21T00:47:05.028Z,100.00
2023-04-21T00:49:33.828Z,100.00
2023-04-21T00:52:03.903Z,100.00
2023-04-21T00:54:32.837Z,100.00
2023-04-21T00:57:02.975Z,100.00
2023-04-21T00:59:31.398Z,100.00
2023-04-21T01:02:02.554Z,100.00
2023-04-21T01:04:35.613Z,100.00
2023-04-21T01:07:06.170Z,100.00
2023-04-21T01:09:36.852Z,100.00
2023-04-21T01:12:06.107Z,100.00
2023-04-21T01:14:34.317Z,100.00
2023-04-21T01:17:04.160Z,100.00
2023-04-21T01:19:35.947Z,100.00
2023-04-21T01:22:05.452Z,100.00
2023-04-21T01:24:37.985Z,100.00
2023-04-21T01:27:11.749Z,100.00
2023-04-21T01:29:40.758Z,100.00
2023-04-21T01:32:10.625Z,100.00
2023-04-21T01:34:39.184Z,100.00
2023-04-21T01:37:10.746Z,100.00
2023-04-21T01:39:39.794Z,100.00
2023-04-21T01:42:08.916Z,100.00
2023-04-21T01:44:37.597Z,100.00
2023-04-21T01:47:06.192Z,100.00
2023-04-21T01:49:34.467Z,100.00
2023-04-21T01:52:02.631Z,100.00
2023-04-21T01:54:34.969Z,100.00
2023-04-21T01:57:03.341Z,100.00
2023-04-21T01:59:31.449Z,100.00
2023-04-21T02:01:59.698Z,100.00
2023-04-21T02:04:28.054Z,100.00
2023-04-21T02:06:56.216Z,100.00
2023-04-21T02:09:25.865Z,100.00
2023-04-21T02:11:57.250Z,100.00
2023-04-21T02:14:25.859Z,100.00
2023-04-21T02:16:54.759Z,100.00
2023-04-21T02:19:23.055Z,100.00
2023-04-21T02:21:51.148Z,100.00
2023-04-21T02:24:19.326Z,100.00
2023-04-21T02:26:47.512Z,100.00
2023-04-21T02:29:17.146Z,100.00
2023-04-21T02:31:58.891Z,100.00
2023-04-21T02:34:31.519Z,100.00
2023-04-21T02:36:59.937Z,100.00
2023-04-21T02:39:27.935Z,100.00
2023-04-21T02:41:56.137Z,100.00
2023-04-21T02:44:26.342Z,100.00
2023-04-21T02:46:54.650Z,100.00
2023-04-21T02:49:22.787Z,100.00
2023-04-21T02:51:51.194Z,100.00
2023-04-21T02:54:19.334Z,100.00
2023-04-21T02:56:47.497Z,100.00
2023-04-21T02:59:17.104Z,100.00
2023-04-21T03:01:49.419Z,100.00
2023-04-21T03:04:17.760Z,100.00
2023-04-21T03:06:46.072Z,100.00
2023-04-21T03:09:14.121Z,100.00
2023-04-21T03:11:42.190Z,100.00
2023-04-21T03:14:10.234Z,100.00
2023-04-21T03:16:38.510Z,100.00
2023-04-21T03:19:08.138Z,100.00
2023-04-21T03:21:38.740Z,100.00
2023-04-21T03:24:07.664Z,100.00
2023-04-21T03:26:38.632Z,100.00
2023-04-21T03:29:06.753Z,100.00
2023-04-21T03:31:34.887Z,100.00
2023-04-21T03:34:03.070Z,100.00
2023-04-21T03:36:32.584Z,100.00
2023-04-21T03:39:12.859Z,100.00
2023-04-21T03:41:47.717Z,100.00
2023-04-21T03:44:15.855Z,100.00
2023-04-21T03:46:44.000Z,100.00
2023-04-21T03:49:12.234Z,100.00
2023-04-21T03:51:41.725Z,100.00
2023-04-21T03:54:09.889Z,100.00
2023-04-21T03:56:38.137Z,100.00
2023-04-21T03:59:06.546Z,100.00
2023-04-21T04:01:35.947Z,100.00
2023-04-21T04:04:04.451Z,100.00
2023-04-21T04:06:33.442Z,100.00
2023-04-21T04:09:04.897Z,100.00
2023-04-21T04:11:33.089Z,100.00
2023-04-21T04:14:01.627Z,100.00
2023-04-21T04:16:30.075Z,100.00
2023-04-21T04:18:58.992Z,100.00
2023-04-21T04:21:27.738Z,100.00
2023-04-21T04:23:56.011Z,100.00
2023-04-21T04:26:25.912Z,100.00
2023-04-21T04:28:56.602Z,100.00
2023-04-21T04:31:25.807Z,100.00
2023-04-21T04:33:55.559Z,100.00
2023-04-21T04:36:24.054Z,100.00
2023-04-21T04:38:52.838Z,100.00
2023-04-21T04:41:21.166Z,100.00
2023-04-21T04:43:51.272Z,100.00
2023-04-21T04:46:20.743Z,100.00
2023-04-21T04:48:49.401Z,100.00
2023-04-21T04:54:03.456Z,100.00
2023-04-21T04:56:32.366Z,100.00
2023-04-21T04:59:01.787Z,100.00
2023-04-21T05:01:31.151Z,100.00
2023-04-21T05:03:59.923Z,100.00
2023-04-21T05:06:28.566Z,100.00
2023-04-21T05:08:58.086Z,100.00
2023-04-21T05:11:26.669Z,100.00
2023-04-21T05:13:55.760Z,100.00
2023-04-21T05:16:25.485Z,100.00
2023-04-21T05:18:55.467Z,100.00
2023-04-21T05:21:28.443Z,100.00
2023-04-21T05:23:57.113Z,100.00
2023-04-21T05:26:25.858Z,100.00
2023-04-21T05:28:53.931Z,100.00
2023-04-21T05:31:21.983Z,100.00
2023-04-21T05:33:51.554Z,100.00
2023-04-21T05:36:20.562Z,100.00
2023-04-21T05:38:50.068Z,100.00
2023-04-21T05:41:36.906Z,100.00
2023-04-21T05:44:05.091Z,100.00
2023-04-21T05:46:35.098Z,100.00
2023-04-21T05:49:04.724Z,100.00
2023-04-21T05:51:32.849Z,100.00
2023-04-21T05:54:01.145Z,100.00
2023-04-21T05:56:29.286Z,100.00
2023-04-21T05:58:57.348Z,100.00
2023-04-21T06:01:26.205Z,100.00
2023-04-21T06:03:54.496Z,100.00
2023-04-21T06:06:24.610Z,100.00
2023-04-21T06:08:52.919Z,100.00
2023-04-21T06:11:21.243Z,100.00
2023-04-21T06:13:49.488Z,100.00
2023-04-21T06:16:17.614Z,100.00
2023-04-21T06:18:45.930Z,100.00
2023-04-21T06:21:13.965Z,100.00
2023-04-21T06:23:43.572Z,96.34
2023-04-21T06:26:11.679Z,93.38
2023-04-21T06:28:39.692Z,91.22
2023-04-21T06:31:09.808Z,91.28
2023-04-21T06:33:38.189Z,88.56
2023-04-21T06:36:07.367Z,87.28
2023-04-21T06:38:35.533Z,85.95
2023-04-21T06:41:06.683Z,85.11
2023-04-21T06:43:34.927Z,85.15
2023-04-21T06:46:02.961Z,76.54
2023-04-21T06:48:31.439Z,74.90
2023-04-21T06:51:00.760Z,72.55
2023-04-21T06:53:28.907Z,71.65
2023-04-21T06:55:56.996Z,71.35
2023-04-21T06:58:26.744Z,70.65
2023-04-21T07:00:55.457Z,70.38
2023-04-21T07:03:23.657Z,70.12
2023-04-21T07:05:52.762Z,69.10
2023-04-21T07:08:20.699Z,68.79
2023-04-21T07:10:48.761Z,70.43
2023-04-21T07:13:17.933Z,70.61
2023-04-21T07:15:47.606Z,69.89
2023-04-21T07:18:15.758Z,68.35
2023-04-21T07:20:44.004Z,68.18
2023-04-21T07:23:12.277Z,67.68
2023-04-21T07:25:40.564Z,68.72
2023-04-21T07:28:08.969Z,66.88
2023-04-21T07:30:37.073Z,68.49
2023-04-21T07:33:06.817Z,67.29
2023-04-21T07:35:35.006Z,67.28
2023-04-21T07:38:03.050Z,69.02
2023-04-21T07:40:31.994Z,67.95
2023-04-21T07:43:00.027Z,67.83
2023-04-21T07:45:28.701Z,67.83
2023-04-21T07:47:57.528Z,67.79
2023-04-21T07:50:27.216Z,66.97
2023-04-21T07:52:55.377Z,67.61
2023-04-21T07:55:23.659Z,66.75
2023-04-21T07:57:51.846Z,67.25
2023-04-21T08:00:20.763Z,66.12
2023-04-21T08:02:48.970Z,65.66
2023-04-21T08:05:17.569Z,66.14
2023-04-21T08:07:47.140Z,66.47
2023-04-21T08:10:15.559Z,64.89
2023-04-21T08:12:43.755Z,63.76
2023-04-21T08:15:12.733Z,62.70
2023-04-21T08:17:41.002Z,62.89
2023-04-21T08:20:10.921Z,63.07
2023-04-21T08:22:39.256Z,61.79
2023-04-21T08:25:09.832Z,63.18
2023-04-21T08:27:40.212Z,62.44
2023-04-21T08:30:10.817Z,60.69
2023-04-21T08:32:39.072Z,57.74
2023-04-21T08:35:08.064Z,58.43
2023-04-21T08:37:38.479Z,58.55
2023-04-21T08:40:09.402Z,56.25
2023-04-21T08:42:39.315Z,55.64
2023-04-21T08:45:08.835Z,54.80
2023-04-21T08:47:41.151Z,56.47
2023-04-21T08:50:14.802Z,55.94
2023-04-21T08:52:43.016Z,56.95
2023-04-21T08:55:14.291Z,55.86
2023-04-21T08:57:42.571Z,55.29
2023-04-21T09:00:11.685Z,55.39
2023-04-21T09:03:00.602Z,54.34
2023-04-21T09:05:31.625Z,54.53
2023-04-21T09:08:10.494Z,53.82
2023-04-21T09:10:47.526Z,54.32
2023-04-21T09:13:15.870Z,51.91
2023-04-21T09:15:45.949Z,52.29
2023-04-21T09:18:16.212Z,52.65
2023-04-21T09:20:47.092Z,51.23
2023-04-21T09:23:15.626Z,50.67
2023-04-21T09:25:46.715Z,51.06
2023-04-21T09:28:16.567Z,52.62
2023-04-21T09:30:45.345Z,51.63
2023-04-21T09:33:27.890Z,50.25
2023-04-21T09:36:02.395Z,49.40
2023-04-21T09:38:30.505Z,50.54
2023-04-21T09:41:01.488Z,51.02
2023-04-21T09:43:29.731Z,49.72
2023-04-21T09:45:59.616Z,49.72
2023-04-21T09:48:32.354Z,49.51
2023-04-21T09:51:25.431Z,51.15
2023-04-21T09:53:54.455Z,48.48
2023-04-21T09:56:26.390Z,48.52
2023-04-21T09:58:56.869Z,49.83
2023-04-21T10:01:29.006Z,48.97
2023-04-21T10:03:57.804Z,49.08
2023-04-21T10:06:26.524Z,49.10
2023-04-21T10:08:59.178Z,48.79
2023-04-21T10:11:28.769Z,46.94
2023-04-21T10:13:57.102Z,47.19
2023-04-21T10:16:26.621Z,46.20
2023-04-21T10:18:55.453Z,45.29
2023-04-21T10:21:24.618Z,45.02
2023-04-21T10:23:54.636Z,44.00
2023-04-21T10:26:24.186Z,46.13
2023-04-21T10:28:59.661Z,45.66
2023-04-21T10:31:32.552Z,44.27
2023-04-21T10:34:30.853Z,45.36
2023-04-21T10:37:18.097Z,43.81
2023-04-21T10:39:52.923Z,44.24
2023-04-21T10:42:38.643Z,44.67
2023-04-21T10:45:17.252Z,42.59
2023-04-21T10:47:51.633Z,43.99
2023-04-21T10:50:25.913Z,42.30
2023-04-21T10:52:59.385Z,39.60
2023-04-21T10:55:30.048Z,38.86
2023-04-21T10:57:59.428Z,39.86
2023-04-21T11:00:29.478Z,40.49
2023-04-21T11:03:04.321Z,40.48
2023-04-21T11:05:36.227Z,40.26
2023-04-21T11:08:06.444Z,38.22
2023-04-21T11:10:49.233Z,36.90
2023-04-21T11:13:17.380Z,39.44
2023-04-21T11:15:59.732Z,40.59
2023-04-21T11:18:41.936Z,40.56
2023-04-21T11:21:18.452Z,41.51
2023-04-21T11:23:50.916Z,41.34
2023-04-21T11:26:21.222Z,41.67
2023-04-21T11:28:51.045Z,41.08
2023-04-21T11:31:20.535Z,42.10
2023-04-21T11:33:51.568Z,41.59
2023-04-21T11:36:23.092Z,41.85
2023-04-21T11:38:51.406Z,40.42
2023-04-21T11:41:22.824Z,42.40
2023-04-21T11:43:51.989Z,40.87
2023-04-21T11:46:26.292Z,40.62
2023-04-21T11:49:02.065Z,40.72
2023-04-21T11:51:35.242Z,41.00
2023-04-21T11:54:03.660Z,41.24
2023-04-21T11:56:35.914Z,40.78
2023-04-21T11:59:09.509Z,41.25
2023-04-21T12:01:44.750Z,40.90
2023-04-21T12:04:16.411Z,41.78
2023-04-21T12:06:45.224Z,41.25
2023-04-21T12:09:19.565Z,40.68
2023-04-21T12:11:51.222Z,40.40
2023-04-21T12:14:20.690Z,40.79
2023-04-21T12:16:53.158Z,41.11
2023-04-21T12:19:25.500Z,42.37
2023-04-21T12:21:57.551Z,40.77
2023-04-21T12:24:26.395Z,41.67
2023-04-21T12:26:57.093Z,42.37
2023-04-21T12:29:25.721Z,40.65
2023-04-21T12:31:55.440Z,38.56
2023-04-21T12:34:23.603Z,39.03
2023-04-21T12:36:51.775Z,39.52
2023-04-21T12:39:20.654Z,39.22
2023-04-21T12:41:49.252Z,37.35
2023-04-21T12:44:17.386Z,39.04
2023-04-21T12:46:45.928Z,41.15
2023-04-21T12:49:15.935Z,42.32
2023-04-21T12:51:44.413Z,43.97
2023-04-21T12:54:12.661Z,44.27
2023-04-21T12:56:42.326Z,48.60
2023-04-21T12:59:12.051Z,55.13
2023-04-21T13:01:41.900Z,71.23
2023-04-21T13:04:12.222Z,71.65
2023-04-21T13:06:42.192Z,66.98
2023-04-21T13:09:10.824Z,66.31
2023-04-21T13:11:39.211Z,63.13
2023-04-21T13:14:08.873Z,60.45
2023-04-21T13:16:37.314Z,58.67
2023-04-21T13:19:05.835Z,56.66
2023-04-21T13:21:34.480Z,54.51
2023-04-21T13:24:04.715Z,51.00
2023-04-21T13:26:35.348Z,50.03
2023-04-21T13:29:04.349Z,48.09
2023-04-21T13:31:32.933Z,47.95
2023-04-21T13:34:02.421Z,46.30
2023-04-21T13:36:31.431Z,48.69
2023-04-21T13:39:02.148Z,45.02
2023-04-21T13:41:31.728Z,45.52
2023-04-21T13:43:59.948Z,43.29
2023-04-21T13:46:28.355Z,44.07
2023-04-21T13:48:57.153Z,44.03
2023-04-21T13:51:25.561Z,45.96
2023-04-21T13:53:55.220Z,46.42
2023-04-21T13:56:23.545Z,45.66
2023-04-21T13:58:53.387Z,46.48
2023-04-21T14:01:22.325Z,45.62
2023-04-21T14:03:50.900Z,46.53
2023-04-21T14:06:19.793Z,45.96
2023-04-21T14:08:48.201Z,45.58
2023-04-21T14:11:16.798Z,45.58
2023-04-21T14:14:00.813Z,45.30
2023-04-21T14:16:35.138Z,44.36
2023-04-21T14:19:03.607Z,42.58
2023-04-21T14:21:32.798Z,44.44
2023-04-21T14:24:01.009Z,43.72
2023-04-21T14:26:31.303Z,42.26
2023-04-21T14:29:00.700Z,42.36
2023-04-21T14:31:29.202Z,42.10
2023-04-21T14:33:59.665Z,42.49
2023-04-21T14:36:28.137Z,39.91
2023-04-21T14:38:56.635Z,41.69
2023-04-21T14:41:25.650Z,39.99
2023-04-21T14:43:56.763Z,40.12
2023-04-21T14:46:25.404Z,40.23
2023-04-21T14:48:53.757Z,40.18
2023-04-21T14:51:23.628Z,40.31
2023-04-21T14:53:52.193Z,42.69
2023-04-21T14:56:20.758Z,43.98
2023-04-21T14:58:48.892Z,48.48
2023-04-21T15:01:17.548Z,50.57
2023-04-21T15:03:46.129Z,52.36
2023-04-21T15:06:16.268Z,53.81
2023-04-21T15:08:45.980Z,52.64
2023-04-21T15:11:15.413Z,53.86
2023-04-21T15:13:43.718Z,54.61
2023-04-21T15:16:12.143Z,54.93
2023-04-21T15:18:41.670Z,56.28
2023-04-21T15:21:10.604Z,55.64
2023-04-21T15:23:38.813Z,54.81
2023-04-21T15:26:09.626Z,52.54
2023-04-21T15:28:39.620Z,52.63
2023-04-21T15:31:10.687Z,52.11
2023-04-21T15:33:38.995Z,52.10
2023-04-21T15:36:07.534Z,51.15
2023-04-21T15:38:35.674Z,51.64
2023-04-21T15:41:04.301Z,52.13
2023-04-21T15:43:35.238Z,51.41
2023-04-21T15:46:04.514Z,52.27
2023-04-21T15:48:32.691Z,50.73
2023-04-21T15:51:01.954Z,48.84
2023-04-21T15:53:30.132Z,50.63
2023-04-21T15:55:58.361Z,50.10
2023-04-21T15:58:26.713Z,49.99
2023-04-21T16:00:56.517Z,51.78
2023-04-21T16:03:25.424Z,51.49
2023-04-21T16:05:53.779Z,51.43
2023-04-21T16:08:22.278Z,50.66
2023-04-21T16:10:50.844Z,51.04
2023-04-21T16:13:19.473Z,52.41
2023-04-21T16:15:47.944Z,53.12
2023-04-21T16:18:17.847Z,54.31
2023-04-21T16:20:46.209Z,54.70
2023-04-21T16:23:15.377Z,54.08
2023-04-21T16:25:43.994Z,55.18
2023-04-21T16:28:12.754Z,54.96
2023-04-21T16:30:43.648Z,56.02
2023-04-21T16:33:13.108Z,56.33
2023-04-21T16:35:43.387Z,56.82
2023-04-21T16:38:11.864Z,58.08
2023-04-21T16:40:40.169Z,58.50
2023-04-21T16:43:08.347Z,59.03
2023-04-21T16:45:36.845Z,59.52
2023-04-21T16:48:05.282Z,59.86
2023-04-21T16:50:33.594Z,60.39
2023-04-21T16:53:03.304Z,61.44
2023-04-21T16:55:31.579Z,61.47
2023-04-21T16:58:00.978Z,61.96
2023-04-21T17:00:30.279Z,62.50
2023-04-21T17:02:58.851Z,63.50
2023-04-21T17:05:27.530Z,63.49
2023-04-21T17:07:55.715Z,64.14
2023-04-21T17:10:28.673Z,64.56
2023-04-21T17:12:57.100Z,64.62
2023-04-21T17:15:25.587Z,64.14
2023-04-21T17:17:54.160Z,63.50
2023-04-21T17:20:22.842Z,64.00
2023-04-21T17:22:51.412Z,74.34
2023-04-21T17:25:19.582Z,79.16
2023-04-21T17:27:49.212Z,83.72
2023-04-21T17:30:19.047Z,87.83
2023-04-21T17:32:47.242Z,92.41
2023-04-21T17:35:15.405Z,95.55
2023-04-21T17:37:43.517Z,96.61
2023-04-21T17:40:12.391Z,96.44
2023-04-21T17:42:41.902Z,96.25
2023-04-21T17:45:12.406Z,95.50
2023-04-21T17:47:40.880Z,94.71
2023-04-21T17:50:12.773Z,94.84
2023-04-21T17:52:41.423Z,97.48
2023-04-21T17:55:10.257Z,99.08
2023-04-21T17:57:38.369Z,100.00
2023-04-21T18:00:08.512Z,100.00
2023-04-21T18:02:38.292Z,100.00
2023-04-21T18:05:07.026Z,100.00
2023-04-21T18:07:35.350Z,100.00
2023-04-21T18:10:03.689Z,100.00
2023-04-21T18:12:31.840Z,100.00
2023-04-21T18:14:59.994Z,100.00
2023-04-21T18:17:28.285Z,100.00
2023-04-21T18:19:57.844Z,100.00
2023-04-21T18:22:26.132Z,100.00
2023-04-21T18:24:54.301Z,100.00
2023-04-21T18:27:22.651Z,100.00
2023-04-21T18:29:51.043Z,100.00
2023-04-21T18:32:21.947Z,100.00
2023-04-21T18:34:50.554Z,100.00
2023-04-21T18:37:20.164Z,100.00
2023-04-21T18:39:48.783Z,100.00
2023-04-21T18:42:17.035Z,100.00
2023-04-21T18:44:45.121Z,100.00
2023-04-21T18:47:13.512Z,100.00
2023-04-21T18:49:42.342Z,100.00
2023-04-21T18:52:10.698Z,100.00
2023-04-21T18:54:40.565Z,100.00
2023-04-21T18:57:09.783Z,100.00
2023-04-21T18:59:39.634Z,100.00
2023-04-21T19:02:11.221Z,100.00
2023-04-21T19:04:39.777Z,100.00
2023-04-21T19:07:10.186Z,100.00
2023-04-21T19:09:41.046Z,100.00
2023-04-21T19:12:09.486Z,100.00
2023-04-21T19:14:46.675Z,100.00
2023-04-21T19:17:15.875Z,100.00
2023-04-21T19:19:44.691Z,100.00
2023-04-21T19:22:14.427Z,100.00
2023-04-21T19:24:44.415Z,100.00
2023-04-21T19:27:12.710Z,100.00
2023-04-21T19:29:41.654Z,100.00
2023-04-21T19:32:10.022Z,100.00
2023-04-21T19:34:39.239Z,100.00
2023-04-21T19:37:07.940Z,100.00
2023-04-21T19:39:36.250Z,100.00
2023-04-21T19:42:06.245Z,100.00
2023-04-21T19:44:36.636Z,100.00
2023-04-21T19:47:04.974Z,100.00
2023-04-21T19:49:33.060Z,100.00
2023-04-21T19:52:01.241Z,100.00
2023-04-21T19:54:29.377Z,100.00
2023-04-21T19:56:57.726Z,100.00
2023-04-21T19:59:27.227Z,100.00
2023-04-21T20:01:55.433Z,100.00
2023-04-21T20:04:23.796Z,100.00
2023-04-21T20:06:52.237Z,100.00
2023-04-21T20:09:20.689Z,100.00
2023-04-21T20:11:48.861Z,100.00
2023-04-21T20:14:17.260Z,100.00
2023-04-21T20:16:46.762Z,100.00
2023-04-21T20:19:17.339Z,100.00
2023-04-21T20:21:45.689Z,100.00
2023-04-21T20:24:15.571Z,100.00
2023-04-21T20:26:43.798Z,100.00
2023-04-21T20:29:12.787Z,100.00
2023-04-21T20:31:41.327Z,100.00
2023-04-21T20:34:10.892Z,100.00
2023-04-21T20:36:39.132Z,100.00
2023-04-21T20:39:07.671Z,100.00
2023-04-21T20:41:35.822Z,100.00
2023-04-21T20:44:04.092Z,100.00
2023-04-21T20:46:32.303Z,100.00
2023-04-21T20:49:00.749Z,100.00
2023-04-21T20:51:30.341Z,100.00
2023-04-21T20:53:59.785Z,100.00
2023-04-21T20:56:27.986Z,100.00
2023-04-21T20:58:56.393Z,100.00
2023-04-21T21:01:24.490Z,100.00
2023-04-21T21:03:53.095Z,100.00
2023-04-21T21:06:21.803Z,100.00
2023-04-21T21:08:51.503Z,100.00
2023-04-21T21:11:20.026Z,100.00
2023-04-21T21:13:48.167Z,100.00
2023-04-21T21:16:19.099Z,100.00
2023-04-21T21:18:47.328Z,100.00
2023-04-21T21:21:17.160Z,100.00
2023-04-21T21:23:47.332Z,100.00
2023-04-21T21:26:16.845Z,100.00
2023-04-21T21:28:45.055Z,100.00
2023-04-21T21:31:13.390Z,100.00
2023-04-21T21:33:41.624Z,100.00
2023-04-21T21:36:10.150Z,100.00
2023-04-21T21:38:38.391Z,100.00
2023-04-21T21:41:07.496Z,100.00
2023-04-21T21:43:36.994Z,100.00
2023-04-21T21:46:06.296Z,100.00
2023-04-21T21:48:34.562Z,100.00
2023-04-21T21:51:02.752Z,100.00
2023-04-21T21:53:30.932Z,100.00
2023-04-21T21:55:59.145Z,100.00
2023-04-21T21:58:27.612Z,100.00
2023-04-21T22:00:57.455Z,100.00
2023-04-21T22:03:25.844Z,100.00
2023-04-21T22:05:54.339Z,100.00
2023-04-21T22:08:30.396Z,100.00
2023-04-21T22:10:59.214Z,100.00
2023-04-21T22:13:33.720Z,100.00
2023-04-21T22:16:13.273Z,100.00
2023-04-21T22:18:41.987Z,100.00
2023-04-21T22:21:26.589Z,100.00
2023-04-21T22:23:55.130Z,100.00
2023-04-21T22:26:26.734Z,100.00
2023-04-21T22:28:54.945Z,100.00
2023-04-21T22:31:25.151Z,100.00
2023-04-21T22:33:53.386Z,100.00
2023-04-21T22:36:22.068Z,100.00
2023-04-21T22:38:50.176Z,100.00
2023-04-21T22:41:18.515Z,100.00
2023-04-21T22:43:48.720Z,100.00
2023-04-21T22:46:17.052Z,100.00
2023-04-21T22:48:48.617Z,100.00
2023-04-21T22:51:18.340Z,100.00
2023-04-21T22:53:48.639Z,100.00
2023-04-21T22:56:16.875Z,100.00
2023-04-21T22:58:45.059Z,100.00
2023-04-21T23:01:13.411Z,100.00
2023-04-21T23:03:41.787Z,100.00
2023-04-21T23:06:12.631Z,100.00
2023-04-21T23:08:40.777Z,100.00
2023-04-21T23:11:08.870Z,100.00
2023-04-21T23:13:37.073Z,100.00
2023-04-21T23:16:05.389Z,100.00
2023-04-21T23:18:33.518Z,100.00
2023-04-21T23:21:01.727Z,100.00
2023-04-21T23:23:31.413Z,100.00
2023-04-21T23:25:59.559Z,100.00
2023-04-21T23:28:27.707Z,100.00
2023-04-21T23:30:55.937Z,100.00
2023-04-21T23:33:24.248Z,100.00
2023-04-21T23:35:52.523Z,100.00
2023-04-21T23:38:21.074Z,100.00
2023-04-21T23:40:50.694Z,100.00
2023-04-21T23:43:24.471Z,100.00
2023-04-21T23:45:53.219Z,100.00
2023-04-21T23:48:21.342Z,100.00
2023-04-21T23:50:49.495Z,100.00
2023-04-21T23:53:17.693Z,100.00
2023-04-21T23:55:46.267Z,100.00
2023-04-21T23:58:15.735Z,100.00
